createdAt,value
2019-01-23T00:01:45.382Z,84.33
2019-01-23T00:04:14.020Z,84.02
2019-01-23T00:06:43.061Z,84.09
2019-01-23T00:09:12.055Z,83.96
2019-01-23T00:11:40.692Z,83.90
2019-01-23T00:14:09.732Z,83.83
2019-01-23T00:16:38.731Z,83.81
2019-01-23T00:19:07.728Z,83.83
2019-01-23T00:21:36.945Z,83.82
2019-01-23T00:24:06.122Z,83.77
2019-01-23T00:26:34.780Z,83.72
2019-01-23T00:29:04.109Z,83.74
2019-01-23T00:31:33.097Z,83.55
2019-01-23T00:34:02.092Z,83.18
2019-01-23T00:36:31.085Z,83.24
2019-01-23T00:39:00.077Z,83.21
2019-01-23T00:41:28.971Z,82.94
2019-01-23T00:43:57.962Z,83.04
2019-01-23T00:46:26.774Z,83.16
2019-01-23T00:48:55.402Z,83.81
2019-01-23T00:51:24.741Z,82.34
2019-01-23T00:53:54.454Z,82.84
2019-01-23T00:56:23.444Z,83.13
2019-01-23T00:58:52.164Z,83.45
2019-01-23T01:01:20.883Z,83.41
2019-01-23T01:03:49.821Z,83.72
2019-01-23T01:06:18.918Z,83.73
2019-01-23T01:08:47.897Z,83.87
2019-01-23T01:11:16.797Z,83.77
2019-01-23T01:13:45.852Z,83.81
2019-01-23T01:16:14.539Z,83.76
2019-01-23T01:18:43.239Z,83.86
2019-01-23T01:21:11.997Z,83.71
2019-01-23T01:23:40.701Z,83.74
2019-01-23T01:26:09.632Z,83.47
2019-01-23T01:28:38.300Z,83.68
2019-01-23T01:31:06.962Z,83.27
2019-01-23T01:33:35.902Z,83.21
2019-01-23T01:36:05.404Z,83.36
2019-01-23T01:38:34.044Z,83.30
2019-01-23T01:41:02.986Z,83.20
2019-01-23T01:43:31.649Z,82.83
2019-01-23T01:46:00.285Z,82.89
2019-01-23T01:48:29.235Z,82.95
2019-01-23T01:50:57.910Z,82.74
2019-01-23T01:53:26.538Z,82.89
2019-01-23T01:55:55.167Z,82.86
2019-01-23T01:58:24.086Z,82.54
2019-01-23T02:00:53.186Z,82.64
2019-01-23T02:03:21.815Z,82.70
2019-01-23T02:05:50.866Z,82.51
2019-01-23T02:08:19.511Z,82.42
2019-01-23T02:10:48.441Z,82.44
2019-01-23T02:13:17.171Z,82.28
2019-01-23T02:15:45.798Z,82.32
2019-01-23T02:18:14.703Z,82.21
2019-01-23T02:20:43.344Z,82.25
2019-01-23T02:23:12.440Z,82.30
2019-01-23T02:25:41.094Z,82.20
2019-01-23T02:28:10.065Z,82.23
2019-01-23T02:30:38.955Z,82.26
2019-01-23T02:33:07.603Z,82.27
2019-01-23T02:35:36.305Z,82.28
2019-01-23T02:38:05.321Z,82.35
2019-01-23T02:40:34.624Z,82.35
2019-01-23T02:43:03.511Z,82.45
2019-01-23T02:45:32.405Z,82.31
2019-01-23T02:48:01.398Z,82.14
2019-01-23T02:50:30.010Z,82.40
2019-01-23T02:52:58.652Z,82.44
2019-01-23T02:55:27.381Z,82.50
2019-01-23T02:57:56.035Z,82.36
2019-01-23T03:00:25.447Z,82.52
2019-01-23T03:02:54.845Z,82.47
2019-01-23T03:05:23.488Z,82.67
2019-01-23T03:07:52.138Z,82.61
2019-01-23T03:10:22.303Z,82.78
2019-01-23T03:12:51.337Z,82.87
2019-01-23T03:15:20.727Z,82.82
2019-01-23T03:17:49.639Z,82.92
2019-01-23T03:20:19.936Z,83.01
2019-01-23T03:22:49.052Z,83.33
2019-01-23T03:25:18.452Z,83.45
2019-01-23T03:27:47.965Z,83.27
2019-01-23T03:30:25.711Z,83.62
2019-01-23T03:32:54.434Z,83.81
2019-01-23T03:35:23.439Z,83.85
2019-01-23T03:37:52.535Z,83.90
2019-01-23T03:40:22.316Z,83.95
2019-01-23T03:42:51.531Z,84.14
2019-01-23T03:45:20.650Z,84.18
2019-01-23T03:47:49.944Z,84.30
2019-01-23T03:50:20.066Z,84.39
2019-01-23T03:52:48.809Z,84.43
2019-01-23T03:55:18.578Z,84.47
2019-01-23T03:57:47.660Z,84.51
2019-01-23T04:00:21.249Z,84.65
2019-01-23T04:02:51.290Z,84.71
2019-01-23T04:05:20.263Z,84.76
2019-01-23T04:07:48.983Z,84.85
2019-01-23T04:10:17.759Z,84.95
2019-01-23T04:12:47.152Z,85.09
2019-01-23T04:15:16.223Z,85.11
2019-01-23T04:17:44.919Z,84.99
2019-01-23T04:20:15.660Z,85.17
2019-01-23T04:22:44.771Z,85.16
2019-01-23T04:25:13.969Z,85.35
2019-01-23T04:27:43.279Z,85.28
2019-01-23T04:30:20.039Z,85.48
2019-01-23T04:32:49.051Z,85.59
2019-01-23T04:35:18.130Z,85.61
2019-01-23T04:37:47.252Z,85.66
2019-01-23T04:40:16.533Z,85.85
2019-01-23T04:42:45.327Z,85.76
2019-01-23T04:45:15.028Z,85.83
2019-01-23T04:47:44.122Z,85.77
2019-01-23T04:50:14.458Z,85.96
2019-01-23T04:53:01.149Z,86.00
2019-01-23T04:55:30.294Z,85.89
2019-01-23T04:57:59.545Z,86.03
2019-01-23T05:00:29.575Z,86.17
2019-01-23T05:02:58.480Z,86.25
2019-01-23T05:05:27.121Z,86.40
2019-01-23T05:07:56.604Z,86.47
2019-01-23T05:10:25.251Z,86.47
2019-01-23T05:12:54.243Z,86.36
2019-01-23T05:15:22.963Z,86.48
2019-01-23T05:17:52.220Z,86.52
2019-01-23T05:20:21.245Z,86.59
2019-01-23T05:22:50.213Z,86.64
2019-01-23T05:25:18.948Z,86.63
2019-01-23T05:27:47.606Z,86.70
2019-01-23T05:30:19.019Z,86.73
2019-01-23T05:32:47.661Z,86.71
2019-01-23T05:35:16.303Z,86.65
2019-01-23T05:37:44.938Z,86.70
2019-01-23T05:40:15.107Z,86.77
2019-01-23T05:42:43.780Z,86.83
2019-01-23T05:45:12.618Z,86.80
2019-01-23T05:47:41.648Z,86.90
2019-01-23T05:50:13.974Z,86.88
2019-01-23T05:52:43.000Z,86.88
2019-01-23T05:55:12.814Z,86.83
2019-01-23T05:57:41.857Z,86.80
2019-01-23T06:00:13.925Z,86.75
2019-01-23T06:02:42.595Z,86.71
2019-01-23T06:05:12.125Z,86.66
2019-01-23T06:07:41.105Z,86.51
2019-01-23T06:10:09.836Z,86.51
2019-01-23T06:12:38.505Z,86.52
2019-01-23T06:15:08.394Z,86.54
2019-01-23T06:17:37.305Z,86.42
2019-01-23T06:20:07.991Z,86.36
2019-01-23T06:22:36.643Z,86.43
2019-01-23T06:25:05.821Z,86.38
2019-01-23T06:27:35.115Z,86.42
2019-01-23T06:30:10.192Z,86.42
2019-01-23T06:32:35.966Z,86.38
2019-01-23T06:35:05.383Z,86.21
2019-01-23T06:37:34.364Z,86.44
2019-01-23T06:40:03.560Z,86.28
2019-01-23T06:42:32.215Z,86.30
2019-01-23T06:45:01.141Z,86.37
2019-01-23T06:47:30.130Z,86.45
2019-01-23T06:49:59.197Z,86.53
2019-01-23T06:52:27.838Z,86.52
2019-01-23T06:54:57.008Z,86.55
2019-01-23T06:57:26.001Z,86.68
2019-01-23T06:59:54.678Z,86.74
2019-01-23T07:02:23.336Z,87.00
2019-01-23T07:04:52.264Z,86.99
2019-01-23T07:07:21.153Z,87.10
2019-01-23T07:09:49.805Z,87.07
2019-01-23T07:12:18.846Z,87.07
2019-01-23T07:14:47.829Z,87.27
2019-01-23T07:17:16.467Z,87.42
2019-01-23T07:19:45.413Z,87.53
2019-01-23T07:22:14.047Z,87.50
2019-01-23T07:24:43.008Z,87.47
2019-01-23T07:27:11.984Z,87.54
2019-01-23T07:29:41.300Z,87.69
2019-01-23T07:32:09.925Z,87.79
2019-01-23T07:34:38.859Z,87.62
2019-01-23T07:37:07.859Z,87.55
2019-01-23T07:39:36.743Z,87.42
2019-01-23T07:42:05.734Z,87.47
2019-01-23T07:44:34.381Z,87.40
2019-01-23T07:47:03.022Z,87.45
2019-01-23T07:49:31.674Z,87.41
2019-01-23T07:52:00.310Z,87.30
2019-01-23T07:54:28.937Z,87.49
2019-01-23T07:56:57.602Z,86.87
2019-01-23T07:59:26.646Z,86.76
2019-01-23T08:01:55.532Z,86.63
2019-01-23T08:04:24.172Z,86.31
2019-01-23T08:06:52.792Z,86.17
2019-01-23T08:09:21.438Z,85.78
2019-01-23T08:11:50.171Z,85.03
2019-01-23T08:14:18.897Z,85.36
2019-01-23T08:16:47.607Z,85.53
2019-01-23T08:19:16.266Z,84.60
2019-01-23T08:21:45.333Z,85.00
2019-01-23T08:24:13.994Z,84.46
2019-01-23T08:26:42.674Z,84.02
2019-01-23T08:29:11.432Z,84.08
2019-01-23T08:31:40.123Z,83.64
2019-01-23T08:34:09.074Z,83.74
2019-01-23T08:36:38.379Z,83.24
2019-01-23T08:39:08.821Z,83.37
2019-01-23T08:41:37.803Z,82.89
2019-01-23T08:44:06.898Z,82.06
2019-01-23T08:46:35.558Z,81.38
2019-01-23T08:49:05.040Z,81.17
2019-01-23T08:51:33.695Z,80.55
2019-01-23T08:54:02.774Z,80.48
2019-01-23T08:56:31.498Z,80.87
2019-01-23T08:59:00.427Z,79.56
2019-01-23T09:01:29.449Z,77.79
2019-01-23T09:03:58.436Z,78.24
2019-01-23T09:06:27.326Z,78.68
2019-01-23T09:08:55.960Z,77.50
2019-01-23T09:11:24.719Z,76.90
2019-01-23T09:13:54.016Z,76.28
2019-01-23T09:16:22.657Z,76.14
2019-01-23T09:18:51.303Z,75.66
2019-01-23T09:21:20.303Z,75.25
2019-01-23T09:23:49.260Z,75.10
2019-01-23T09:26:18.249Z,75.08
2019-01-23T09:28:46.930Z,74.32
2019-01-23T09:31:44.399Z,73.93
2019-01-23T09:34:54.603Z,73.61
2019-01-23T09:38:08.330Z,72.18
2019-01-23T09:40:46.521Z,72.38
2019-01-23T09:44:00.737Z,71.22
2019-01-23T09:47:13.638Z,70.97
2019-01-23T09:50:07.159Z,71.77
2019-01-23T09:52:49.057Z,70.03
2019-01-23T09:55:17.713Z,70.44
2019-01-23T09:57:52.867Z,70.77
2019-01-23T10:00:24.247Z,69.81
2019-01-23T10:02:52.976Z,69.31
2019-01-23T10:05:21.627Z,68.89
2019-01-23T10:07:50.697Z,69.17
2019-01-23T10:10:19.689Z,68.92
2019-01-23T10:12:48.853Z,68.35
2019-01-23T10:15:21.873Z,67.30
2019-01-23T10:17:50.583Z,68.36
2019-01-23T10:20:19.237Z,67.10
2019-01-23T10:22:47.866Z,67.92
2019-01-23T10:25:16.912Z,68.30
2019-01-23T10:27:46.143Z,66.89
2019-01-23T10:30:15.238Z,68.56
2019-01-23T10:32:44.215Z,68.35
2019-01-23T10:35:13.803Z,67.87
2019-01-23T10:37:42.711Z,68.35
2019-01-23T10:40:13.948Z,68.08
2019-01-23T10:42:42.954Z,67.77
2019-01-23T10:45:12.457Z,68.52
2019-01-23T10:47:41.273Z,68.89
2019-01-23T10:50:11.500Z,68.45
2019-01-23T10:52:40.773Z,67.92
2019-01-23T10:55:09.764Z,66.74
2019-01-23T10:57:38.554Z,66.93
2019-01-23T11:00:11.029Z,65.98
2019-01-23T11:02:40.130Z,66.90
2019-01-23T11:05:10.691Z,66.29
2019-01-23T11:07:39.398Z,66.46
2019-01-23T11:10:11.244Z,66.60
2019-01-23T11:12:40.297Z,66.89
2019-01-23T11:15:09.080Z,66.30
2019-01-23T11:17:37.772Z,67.69
2019-01-23T11:20:08.912Z,67.26
2019-01-23T11:22:37.560Z,65.62
2019-01-23T11:25:07.191Z,64.96
2019-01-23T11:27:35.929Z,65.03
2019-01-23T11:30:08.276Z,65.50
2019-01-23T11:32:37.266Z,64.25
2019-01-23T11:35:07.404Z,63.32
2019-01-23T11:37:36.134Z,64.08
2019-01-23T11:40:08.076Z,62.02
2019-01-23T11:42:37.029Z,64.15
2019-01-23T11:45:07.455Z,64.97
2019-01-23T11:47:36.450Z,64.13
2019-01-23T11:50:06.776Z,62.98
2019-01-23T11:52:35.484Z,62.74
2019-01-23T11:55:04.980Z,62.49
2019-01-23T11:57:33.960Z,64.07
2019-01-23T12:00:02.700Z,63.58
2019-01-23T12:02:32.840Z,59.68
2019-01-23T12:05:01.768Z,61.57
2019-01-23T12:07:30.651Z,60.78
2019-01-23T12:09:59.653Z,62.39
2019-01-23T12:12:28.370Z,61.32
2019-01-23T12:14:57.020Z,58.98
2019-01-23T12:17:26.028Z,63.64
2019-01-23T12:19:55.006Z,60.66
2019-01-23T12:22:24.102Z,58.66
2019-01-23T12:24:53.406Z,58.27
2019-01-23T12:27:22.057Z,60.98
2019-01-23T12:29:50.809Z,59.44
2019-01-23T12:32:19.774Z,61.81
2019-01-23T12:34:48.427Z,59.10
2019-01-23T12:37:17.059Z,57.87
2019-01-23T12:39:46.048Z,58.63
2019-01-23T12:42:14.755Z,58.48
2019-01-23T12:44:43.715Z,60.54
2019-01-23T12:47:12.632Z,58.18
2019-01-23T12:49:41.507Z,56.71
2019-01-23T12:52:10.489Z,57.95
2019-01-23T12:54:39.382Z,59.43
2019-01-23T12:57:08.054Z,59.63
2019-01-23T12:59:36.960Z,59.57
2019-01-23T13:02:09.695Z,60.55
2019-01-23T13:04:36.435Z,58.84
2019-01-23T13:07:05.150Z,60.53
2019-01-23T13:09:34.074Z,59.89
2019-01-23T13:12:03.057Z,60.68
2019-01-23T13:14:32.255Z,58.38
2019-01-23T13:17:01.253Z,59.41
2019-01-23T13:19:29.880Z,58.70
2019-01-23T13:21:58.850Z,58.71
2019-01-23T13:24:27.462Z,59.25
2019-01-23T13:26:56.409Z,60.19
2019-01-23T13:29:25.041Z,59.95
2019-01-23T13:31:54.093Z,59.60
2019-01-23T13:34:22.730Z,59.97
2019-01-23T13:36:51.439Z,59.83
2019-01-23T13:39:20.659Z,60.50
2019-01-23T13:41:49.688Z,60.40
2019-01-23T13:44:18.745Z,60.66
2019-01-23T13:46:47.407Z,62.23
2019-01-23T13:49:16.323Z,61.37
2019-01-23T13:51:44.986Z,60.69
2019-01-23T13:54:13.635Z,61.86
2019-01-23T13:56:42.589Z,62.22
2019-01-23T13:59:11.512Z,64.51
2019-01-23T14:01:40.186Z,64.44
2019-01-23T14:04:09.162Z,64.90
2019-01-23T14:06:38.046Z,65.02
2019-01-23T14:09:07.895Z,64.36
2019-01-23T14:11:36.964Z,65.09
2019-01-23T14:14:06.353Z,65.56
2019-01-23T14:16:35.362Z,65.90
2019-01-23T14:19:04.249Z,66.22
2019-01-23T14:21:33.242Z,66.93
2019-01-23T14:24:02.276Z,66.62
2019-01-23T14:26:31.233Z,67.15
2019-01-23T14:28:59.865Z,67.07
2019-01-23T14:31:28.593Z,67.47
2019-01-23T14:33:57.638Z,67.72
2019-01-23T14:36:26.788Z,68.48
2019-01-23T14:38:55.457Z,68.57
2019-01-23T14:41:24.476Z,70.07
2019-01-23T14:43:53.203Z,69.75
2019-01-23T14:46:21.849Z,70.26
2019-01-23T14:48:50.470Z,70.82
2019-01-23T14:51:19.113Z,71.73
2019-01-23T14:53:48.115Z,71.99
2019-01-23T14:56:16.823Z,72.04
2019-01-23T14:58:45.534Z,72.84
2019-01-23T15:01:14.794Z,73.04
2019-01-23T15:03:43.990Z,73.56
2019-01-23T15:06:12.880Z,73.40
2019-01-23T15:08:41.875Z,74.01
2019-01-23T15:11:10.870Z,74.56
2019-01-23T15:13:39.517Z,74.69
2019-01-23T15:16:08.450Z,75.25
2019-01-23T15:18:37.086Z,75.41
2019-01-23T15:21:05.790Z,75.62
2019-01-23T15:23:34.711Z,75.97
2019-01-23T15:26:03.361Z,76.20
2019-01-23T15:28:32.098Z,76.78
2019-01-23T15:31:00.787Z,77.42
2019-01-23T15:33:29.428Z,78.51
2019-01-23T15:35:58.447Z,77.59
2019-01-23T15:38:27.339Z,77.78
2019-01-23T15:40:55.950Z,77.92
2019-01-23T15:43:24.563Z,78.36
2019-01-23T15:45:53.539Z,78.94
2019-01-23T15:48:22.160Z,78.53
2019-01-23T15:50:50.796Z,79.06
2019-01-23T15:53:20.442Z,79.21
2019-01-23T15:55:49.383Z,79.21
2019-01-23T15:58:18.020Z,79.07
2019-01-23T16:00:46.660Z,80.39
2019-01-23T16:03:15.384Z,79.05
2019-01-23T16:05:45.254Z,78.87
2019-01-23T16:08:14.144Z,79.00
2019-01-23T16:10:42.817Z,79.21
2019-01-23T16:13:11.488Z,79.60
2019-01-23T16:15:43.175Z,80.08
2019-01-23T16:18:11.803Z,80.29
2019-01-23T16:20:40.748Z,80.65
2019-01-23T16:23:09.364Z,81.00
2019-01-23T16:25:38.324Z,81.63
2019-01-23T16:28:07.434Z,81.46
2019-01-23T16:30:38.219Z,81.27
2019-01-23T16:33:07.256Z,81.55
2019-01-23T16:35:38.743Z,81.36
2019-01-23T16:38:09.009Z,81.50
2019-01-23T16:40:37.787Z,81.37
2019-01-23T16:43:06.819Z,81.89
2019-01-23T16:45:35.550Z,81.76
2019-01-23T16:48:04.354Z,81.64
2019-01-23T16:50:33.381Z,81.53
2019-01-23T16:53:02.338Z,81.24
2019-01-23T16:55:31.394Z,81.65
2019-01-23T16:58:00.303Z,81.51
2019-01-23T17:00:29.025Z,81.48
2019-01-23T17:02:58.503Z,81.37
2019-01-23T17:05:29.515Z,81.59
2019-01-23T17:08:00.104Z,81.83
2019-01-23T17:10:28.868Z,81.91
2019-01-23T17:12:57.907Z,81.83
2019-01-23T17:15:26.716Z,81.30
2019-01-23T17:17:55.520Z,81.37
2019-01-23T17:20:30.564Z,81.23
2019-01-23T17:22:59.626Z,81.31
2019-01-23T17:25:28.607Z,81.50
2019-01-23T17:27:57.602Z,81.66
2019-01-23T17:30:26.805Z,81.40
2019-01-23T17:32:55.427Z,81.74
2019-01-23T17:35:24.485Z,81.91
2019-01-23T17:37:53.129Z,81.96
2019-01-23T17:40:22.266Z,82.28
2019-01-23T17:42:50.909Z,82.72
2019-01-23T17:45:22.710Z,82.61
2019-01-23T17:47:52.012Z,82.85
2019-01-23T17:50:21.618Z,82.70
2019-01-23T17:52:50.814Z,82.96
2019-01-23T17:55:25.154Z,83.22
2019-01-23T17:57:54.054Z,82.93
2019-01-23T18:00:26.077Z,83.03
2019-01-23T18:02:55.406Z,82.80
2019-01-23T18:05:24.596Z,82.95
2019-01-23T18:07:53.238Z,82.40
2019-01-23T18:10:22.683Z,82.41
2019-01-23T18:12:51.314Z,82.29
2019-01-23T18:15:21.887Z,82.52
2019-01-23T18:17:50.889Z,82.48
2019-01-23T18:20:22.234Z,82.67
2019-01-23T18:22:51.348Z,82.41
2019-01-23T18:25:20.253Z,82.12
2019-01-23T18:27:49.331Z,82.37
2019-01-23T18:30:24.262Z,82.21
2019-01-23T18:32:59.652Z,82.36
2019-01-23T18:35:37.749Z,82.52
2019-01-23T18:38:17.056Z,82.51
2019-01-23T18:41:33.047Z,82.25
2019-01-23T18:44:14.646Z,82.02
2019-01-23T18:47:06.255Z,81.36
2019-01-23T18:50:19.180Z,81.92
2019-01-23T18:52:48.177Z,81.07
2019-01-23T18:55:17.973Z,81.57
2019-01-23T18:57:46.984Z,81.73
2019-01-23T19:00:18.435Z,82.16
2019-01-23T19:02:47.073Z,81.08
2019-01-23T19:05:17.670Z,81.50
2019-01-23T19:07:46.639Z,81.38
2019-01-23T19:10:16.043Z,81.55
2019-01-23T19:12:44.762Z,81.67
2019-01-23T19:15:15.126Z,81.36
2019-01-23T19:17:44.162Z,81.19
2019-01-23T19:20:16.055Z,80.93
2019-01-23T19:22:45.104Z,81.66
2019-01-23T19:25:14.518Z,81.77
2019-01-23T19:27:43.370Z,81.72
2019-01-23T19:30:14.675Z,81.53
2019-01-23T19:32:43.396Z,81.66
2019-01-23T19:35:12.204Z,81.11
2019-01-23T19:37:40.923Z,81.20
2019-01-23T19:40:10.861Z,81.26
2019-01-23T19:42:39.508Z,81.01
2019-01-23T19:45:12.499Z,80.39
2019-01-23T19:47:41.768Z,80.62
2019-01-23T19:50:11.859Z,80.60
2019-01-23T19:52:40.914Z,80.83
2019-01-23T19:55:11.547Z,80.61
2019-01-23T19:57:40.181Z,80.53
2019-01-23T20:00:13.395Z,80.61
2019-01-23T20:02:42.431Z,80.68
2019-01-23T20:05:12.824Z,80.73
2019-01-23T20:07:41.454Z,81.04
2019-01-23T20:10:14.448Z,80.59
2019-01-23T20:12:43.030Z,80.53
2019-01-23T20:15:13.664Z,80.53
2019-01-23T20:17:42.732Z,80.67
2019-01-23T20:20:12.414Z,80.74
2019-01-23T20:22:41.112Z,80.86
2019-01-23T20:25:13.092Z,81.00
2019-01-23T20:27:41.981Z,81.05
2019-01-23T20:30:37.463Z,81.26
2019-01-23T20:33:06.376Z,81.04
2019-01-23T20:35:35.383Z,80.39
2019-01-23T20:38:04.790Z,80.44
2019-01-23T20:40:33.415Z,80.21
2019-01-23T20:43:02.087Z,79.90
2019-01-23T20:45:31.363Z,80.30
2019-01-23T20:48:00.092Z,80.64
2019-01-23T20:50:31.216Z,80.28
2019-01-23T20:52:59.921Z,80.40
2019-01-23T20:55:29.015Z,80.54
2019-01-23T20:57:58.273Z,80.35
2019-01-23T21:00:29.419Z,80.76
2019-01-23T21:02:58.716Z,80.66
2019-01-23T21:05:27.456Z,80.60
2019-01-23T21:07:56.809Z,80.27
2019-01-23T21:10:26.415Z,80.54
2019-01-23T21:12:55.037Z,80.49
2019-01-23T21:15:26.242Z,80.51
2019-01-23T21:17:55.247Z,80.17
2019-01-23T21:20:24.232Z,80.07
2019-01-23T21:22:52.886Z,80.04
2019-01-23T21:25:21.809Z,80.13
2019-01-23T21:27:50.433Z,79.93
2019-01-23T21:30:21.818Z,80.03
2019-01-23T21:32:50.448Z,80.03
2019-01-23T21:35:20.340Z,79.81
2019-01-23T21:37:49.211Z,80.15
2019-01-23T21:40:23.054Z,80.00
2019-01-23T21:42:51.803Z,79.92
2019-01-23T21:45:20.743Z,79.63
2019-01-23T21:47:50.855Z,79.65
2019-01-23T21:50:20.963Z,79.83
2019-01-23T21:52:49.962Z,80.01
2019-01-23T21:55:20.440Z,79.99
2019-01-23T21:57:49.157Z,79.82
2019-01-23T22:00:45.306Z,79.98
2019-01-23T22:03:13.914Z,79.80
2019-01-23T22:05:42.880Z,79.87
2019-01-23T22:08:11.522Z,80.07
2019-01-23T22:10:40.559Z,80.09
2019-01-23T22:13:09.454Z,79.80
2019-01-23T22:15:38.454Z,79.86
2019-01-23T22:18:08.630Z,79.41
2019-01-23T22:20:37.272Z,79.89
2019-01-23T22:23:06.043Z,79.47
2019-01-23T22:25:34.932Z,79.60
2019-01-23T22:28:03.929Z,79.57
2019-01-23T22:30:33.436Z,79.72
2019-01-23T22:33:02.567Z,79.57
2019-01-23T22:35:31.627Z,79.58
2019-01-23T22:38:00.269Z,79.44
2019-01-23T22:40:28.923Z,79.25
2019-01-23T22:42:57.889Z,79.08
2019-01-23T22:45:26.783Z,79.17
2019-01-23T22:47:55.427Z,78.88
2019-01-23T22:50:25.972Z,78.79
2019-01-23T22:52:55.092Z,78.55
2019-01-23T22:55:24.394Z,78.32
2019-01-23T22:57:54.105Z,78.55
2019-01-23T23:00:46.579Z,78.25
2019-01-23T23:03:18.000Z,78.33
2019-01-23T23:05:46.690Z,78.35
2019-01-23T23:08:15.783Z,78.42
2019-01-23T23:10:44.451Z,78.41
2019-01-23T23:13:13.452Z,78.51
2019-01-23T23:15:42.555Z,78.36
2019-01-23T23:18:11.557Z,78.60
2019-01-23T23:20:40.446Z,78.86
2019-01-23T23:23:09.163Z,78.40
2019-01-23T23:25:38.414Z,78.58
2019-01-23T23:28:07.423Z,78.39
2019-01-23T23:30:36.724Z,78.44
2019-01-23T23:33:05.717Z,78.32
2019-01-23T23:35:34.709Z,78.34
2019-01-23T23:38:03.811Z,78.87
2019-01-23T23:40:32.522Z,78.49
2019-01-23T23:43:01.154Z,78.67
2019-01-23T23:45:30.074Z,78.58
2019-01-23T23:47:58.783Z,78.49
2019-01-23T23:50:27.453Z,78.65
2019-01-23T23:52:56.062Z,78.69
2019-01-23T23:55:24.703Z,78.54
2019-01-23T23:57:53.718Z,78.60
